sensor_id;sensor_type;location;lat;lon;timestamp;P1;durP1;ratioP1;P2;durP2;ratioP2
65407;SDS011;52017;51.230;-2.322;2022-11-02T00:00:36;7.17;;;1.43;;
65407;SDS011;52017;51.230;-2.322;2022-11-02T00:04:21;8.67;;;1.87;;
65407;SDS011;52017;51.230;-2.322;2022-11-02T00:08:03;9.17;;;2.00;;
65407;SDS011;52017;51.230;-2.322;2022-11-02T00:11:45;7.40;;;1.87;;
65407;SDS011;52017;51.230;-2.322;2022-11-02T00:15:28;8.10;;;1.80;;
65407;SDS011;52017;51.230;-2.322;2022-11-02T00:19:13;9.63;;;2.00;;
65407;SDS011;52017;51.230;-2.322;2022-11-02T00:22:56;11.17;;;1.83;;
65407;SDS011;52017;51.230;-2.322;2022-11-02T00:26:41;8.13;;;1.50;;
65407;SDS011;52017;51.230;-2.322;2022-11-02T00:30:23;9.60;;;2.10;;
65407;SDS011;52017;51.230;-2.322;2022-11-02T00:34:05;7.50;;;2.00;;
65407;SDS011;52017;51.230;-2.322;2022-11-02T00:37:47;7.03;;;2.03;;
65407;SDS011;52017;51.230;-2.322;2022-11-02T00:41:28;10.07;;;2.30;;
65407;SDS011;52017;51.230;-2.322;2022-11-02T00:45:11;7.43;;;1.67;;
65407;SDS011;52017;51.230;-2.322;2022-11-02T00:48:54;10.57;;;2.03;;
65407;SDS011;52017;51.230;-2.322;2022-11-02T00:52:37;8.57;;;1.87;;
65407;SDS011;52017;51.230;-2.322;2022-11-02T00:56:20;12.60;;;1.97;;
65407;SDS011;52017;51.230;-2.322;2022-11-02T01:00:03;8.43;;;1.97;;
65407;SDS011;52017;51.230;-2.322;2022-11-02T01:03:46;5.70;;;1.40;;
65407;SDS011;52017;51.230;-2.322;2022-11-02T01:07:28;15.97;;;1.93;;
65407;SDS011;52017;51.230;-2.322;2022-11-02T01:11:11;8.53;;;1.93;;
65407;SDS011;52017;51.230;-2.322;2022-11-02T01:14:54;9.47;;;1.70;;
65407;SDS011;52017;51.230;-2.322;2022-11-02T01:18:36;5.97;;;1.47;;
65407;SDS011;52017;51.230;-2.322;2022-11-02T01:22:19;9.70;;;1.80;;
65407;SDS011;52017;51.230;-2.322;2022-11-02T01:26:02;9.30;;;1.70;;
65407;SDS011;52017;51.230;-2.322;2022-11-02T01:29:44;5.60;;;1.77;;
65407;SDS011;52017;51.230;-2.322;2022-11-02T01:33:26;7.23;;;1.80;;
65407;SDS011;52017;51.230;-2.322;2022-11-02T01:37:09;8.33;;;1.77;;
65407;SDS011;52017;51.230;-2.322;2022-11-02T01:40:51;14.00;;;2.50;;
65407;SDS011;52017;51.230;-2.322;2022-11-02T01:44:33;11.50;;;1.80;;
65407;SDS011;52017;51.230;-2.322;2022-11-02T01:48:15;14.40;;;3.63;;
65407;SDS011;52017;51.230;-2.322;2022-11-02T01:52:03;16.53;;;2.73;;
65407;SDS011;52017;51.230;-2.322;2022-11-02T01:59:48;11.50;;;1.73;;
65407;SDS011;52017;51.230;-2.322;2022-11-02T02:03:39;11.33;;;2.20;;
65407;SDS011;52017;51.230;-2.322;2022-11-02T02:07:22;11.90;;;2.53;;
65407;SDS011;52017;51.230;-2.322;2022-11-02T02:11:40;10.03;;;1.93;;
65407;SDS011;52017;51.230;-2.322;2022-11-02T02:15:14;9.87;;;2.43;;
65407;SDS011;52017;51.230;-2.322;2022-11-02T02:18:57;9.27;;;2.33;;
65407;SDS011;52017;51.230;-2.322;2022-11-02T02:26:44;11.60;;;2.60;;
65407;SDS011;52017;51.230;-2.322;2022-11-02T02:30:53;11.33;;;2.70;;
65407;SDS011;52017;51.230;-2.322;2022-11-02T02:38:41;13.67;;;2.10;;
65407;SDS011;52017;51.230;-2.322;2022-11-02T02:46:18;11.20;;;2.03;;
65407;SDS011;52017;51.230;-2.322;2022-11-02T02:50:10;12.33;;;2.07;;
65407;SDS011;52017;51.230;-2.322;2022-11-02T02:54:02;11.13;;;2.30;;
65407;SDS011;52017;51.230;-2.322;2022-11-02T02:57:48;9.70;;;2.17;;
65407;SDS011;52017;51.230;-2.322;2022-11-02T03:01:33;8.70;;;2.13;;
65407;SDS011;52017;51.230;-2.322;2022-11-02T03:05:21;12.43;;;2.20;;
65407;SDS011;52017;51.230;-2.322;2022-11-02T03:13:02;14.77;;;1.70;;
65407;SDS011;52017;51.230;-2.322;2022-11-02T03:20:57;8.73;;;2.03;;
65407;SDS011;52017;51.230;-2.322;2022-11-02T03:24:56;9.37;;;1.90;;
65407;SDS011;52017;51.230;-2.322;2022-11-02T03:28:54;8.23;;;1.83;;
65407;SDS011;52017;51.230;-2.322;2022-11-02T03:32:46;8.50;;;2.23;;
65407;SDS011;52017;51.230;-2.322;2022-11-02T03:40:52;10.17;;;1.80;;
65407;SDS011;52017;51.230;-2.322;2022-11-02T03:44:39;10.87;;;1.60;;
65407;SDS011;52017;51.230;-2.322;2022-11-02T03:48:23;11.60;;;2.53;;
65407;SDS011;52017;51.230;-2.322;2022-11-02T03:52:11;12.37;;;2.43;;
65407;SDS011;52017;51.230;-2.322;2022-11-02T03:55:59;9.43;;;1.40;;
65407;SDS011;52017;51.230;-2.322;2022-11-02T03:59:46;10.50;;;2.77;;
65407;SDS011;52017;51.230;-2.322;2022-11-02T04:03:28;8.70;;;1.77;;
65407;SDS011;52017;51.230;-2.322;2022-11-02T04:07:13;7.37;;;2.00;;
65407;SDS011;52017;51.230;-2.322;2022-11-02T04:10:57;10.80;;;2.77;;
65407;SDS011;52017;51.230;-2.322;2022-11-02T04:14:58;14.20;;;2.23;;
65407;SDS011;52017;51.230;-2.322;2022-11-02T04:18:41;10.63;;;1.77;;
65407;SDS011;52017;51.230;-2.322;2022-11-02T04:22:42;16.53;;;2.30;;
65407;SDS011;52017;51.230;-2.322;2022-11-02T04:26:42;8.93;;;1.63;;
65407;SDS011;52017;51.230;-2.322;2022-11-02T04:30:24;8.70;;;1.77;;
65407;SDS011;52017;51.230;-2.322;2022-11-02T04:34:06;10.97;;;2.23;;
65407;SDS011;52017;51.230;-2.322;2022-11-02T04:37:48;12.17;;;2.00;;
65407;SDS011;52017;51.230;-2.322;2022-11-02T04:41:48;5.47;;;1.60;;
65407;SDS011;52017;51.230;-2.322;2022-11-02T04:45:30;17.30;;;2.37;;
65407;SDS011;52017;51.230;-2.322;2022-11-02T04:49:12;14.77;;;2.40;;
65407;SDS011;52017;51.230;-2.322;2022-11-02T04:52:58;9.97;;;2.07;;
65407;SDS011;52017;51.230;-2.322;2022-11-02T04:56:41;10.77;;;1.70;;
65407;SDS011;52017;51.230;-2.322;2022-11-02T05:00:23;8.97;;;2.13;;
65407;SDS011;52017;51.230;-2.322;2022-11-02T05:04:05;9.70;;;2.03;;
65407;SDS011;52017;51.230;-2.322;2022-11-02T05:07:48;12.57;;;2.57;;
65407;SDS011;52017;51.230;-2.322;2022-11-02T05:11:30;15.17;;;1.93;;
65407;SDS011;52017;51.230;-2.322;2022-11-02T05:15:12;8.73;;;1.83;;
65407;SDS011;52017;51.230;-2.322;2022-11-02T05:18:53;13.73;;;2.47;;
65407;SDS011;52017;51.230;-2.322;2022-11-02T05:22:35;9.33;;;2.17;;
65407;SDS011;52017;51.230;-2.322;2022-11-02T05:26:22;12.05;;;2.78;;
65407;SDS011;52017;51.230;-2.322;2022-11-02T05:30:04;14.63;;;2.70;;
65407;SDS011;52017;51.230;-2.322;2022-11-02T05:33:47;16.80;;;2.47;;
65407;SDS011;52017;51.230;-2.322;2022-11-02T05:37:29;13.10;;;2.37;;
65407;SDS011;52017;51.230;-2.322;2022-11-02T05:41:11;16.10;;;2.63;;
65407;SDS011;52017;51.230;-2.322;2022-11-02T05:44:52;17.23;;;2.13;;
65407;SDS011;52017;51.230;-2.322;2022-11-02T05:48:34;8.93;;;2.10;;
65407;SDS011;52017;51.230;-2.322;2022-11-02T05:52:16;13.00;;;2.60;;
65407;SDS011;52017;51.230;-2.322;2022-11-02T05:55:59;11.50;;;2.20;;
65407;SDS011;52017;51.230;-2.322;2022-11-02T05:59:42;11.93;;;2.30;;
65407;SDS011;52017;51.230;-2.322;2022-11-02T06:03:30;13.50;;;1.90;;
65407;SDS011;52017;51.230;-2.322;2022-11-02T06:07:12;13.23;;;1.83;;
65407;SDS011;52017;51.230;-2.322;2022-11-02T06:10:54;14.40;;;2.50;;
65407;SDS011;52017;51.230;-2.322;2022-11-02T06:14:36;8.57;;;1.97;;
65407;SDS011;52017;51.230;-2.322;2022-11-02T06:18:18;5.50;;;1.77;;
65407;SDS011;52017;51.230;-2.322;2022-11-02T06:22:00;12.23;;;2.00;;
65407;SDS011;52017;51.230;-2.322;2022-11-02T06:25:48;18.00;;;3.10;;
65407;SDS011;52017;51.230;-2.322;2022-11-02T06:29:32;8.27;;;1.90;;
65407;SDS011;52017;51.230;-2.322;2022-11-02T06:33:14;13.17;;;2.40;;
65407;SDS011;52017;51.230;-2.322;2022-11-02T06:36:57;9.57;;;2.10;;
65407;SDS011;52017;51.230;-2.322;2022-11-02T06:40:38;15.27;;;2.23;;
65407;SDS011;52017;51.230;-2.322;2022-11-02T06:44:20;16.13;;;3.00;;
65407;SDS011;52017;51.230;-2.322;2022-11-02T06:48:02;15.57;;;2.10;;
65407;SDS011;52017;51.230;-2.322;2022-11-02T06:51:44;10.23;;;2.17;;
65407;SDS011;52017;51.230;-2.322;2022-11-02T06:55:26;13.17;;;2.80;;
65407;SDS011;52017;51.230;-2.322;2022-11-02T06:59:08;15.73;;;2.97;;
65407;SDS011;52017;51.230;-2.322;2022-11-02T07:03:02;13.70;;;2.40;;
65407;SDS011;52017;51.230;-2.322;2022-11-02T07:06:46;25.33;;;3.23;;
65407;SDS011;52017;51.230;-2.322;2022-11-02T07:10:28;13.60;;;3.17;;
65407;SDS011;52017;51.230;-2.322;2022-11-02T07:14:10;12.43;;;3.10;;
65407;SDS011;52017;51.230;-2.322;2022-11-02T07:17:52;11.87;;;2.30;;
65407;SDS011;52017;51.230;-2.322;2022-11-02T07:21:34;13.90;;;2.03;;
65407;SDS011;52017;51.230;-2.322;2022-11-02T07:25:16;13.30;;;2.63;;
65407;SDS011;52017;51.230;-2.322;2022-11-02T07:29:00;21.63;;;3.13;;
65407;SDS011;52017;51.230;-2.322;2022-11-02T07:32:43;14.40;;;2.17;;
65407;SDS011;52017;51.230;-2.322;2022-11-02T07:36:26;13.77;;;4.50;;
65407;SDS011;52017;51.230;-2.322;2022-11-02T07:40:08;19.30;;;3.77;;
65407;SDS011;52017;51.230;-2.322;2022-11-02T07:43:52;14.13;;;2.73;;
65407;SDS011;52017;51.230;-2.322;2022-11-02T07:47:40;17.93;;;2.80;;
65407;SDS011;52017;51.230;-2.322;2022-11-02T07:51:25;17.00;;;2.83;;
65407;SDS011;52017;51.230;-2.322;2022-11-02T07:55:07;13.87;;;2.60;;
65407;SDS011;52017;51.230;-2.322;2022-11-02T07:58:49;17.73;;;3.60;;
65407;SDS011;52017;51.230;-2.322;2022-11-02T08:02:32;14.73;;;3.60;;
65407;SDS011;52017;51.230;-2.322;2022-11-02T08:06:15;14.33;;;2.57;;
65407;SDS011;52017;51.230;-2.322;2022-11-02T08:09:57;19.73;;;4.17;;
65407;SDS011;52017;51.230;-2.322;2022-11-02T08:13:39;17.60;;;3.27;;
65407;SDS011;52017;51.230;-2.322;2022-11-02T08:17:21;14.00;;;3.73;;
65407;SDS011;52017;51.230;-2.322;2022-11-02T08:21:03;12.27;;;3.17;;
65407;SDS011;52017;51.230;-2.322;2022-11-02T08:24:45;14.43;;;2.40;;
65407;SDS011;52017;51.230;-2.322;2022-11-02T08:28:30;13.30;;;2.97;;
65407;SDS011;52017;51.230;-2.322;2022-11-02T08:32:15;17.08;;;4.93;;
65407;SDS011;52017;51.230;-2.322;2022-11-02T08:36:01;14.80;;;3.97;;
65407;SDS011;52017;51.230;-2.322;2022-11-02T08:39:46;17.13;;;3.83;;
65407;SDS011;52017;51.230;-2.322;2022-11-02T08:43:28;18.10;;;3.60;;
65407;SDS011;52017;51.230;-2.322;2022-11-02T08:47:10;20.10;;;4.13;;
65407;SDS011;52017;51.230;-2.322;2022-11-02T08:50:52;16.10;;;3.70;;
65407;SDS011;52017;51.230;-2.322;2022-11-02T08:54:36;28.90;;;4.47;;
65407;SDS011;52017;51.230;-2.322;2022-11-02T08:58:18;19.33;;;3.50;;
65407;SDS011;52017;51.230;-2.322;2022-11-02T09:02:00;16.83;;;3.17;;
65407;SDS011;52017;51.230;-2.322;2022-11-02T09:05:44;19.00;;;3.57;;
65407;SDS011;52017;51.230;-2.322;2022-11-02T09:09:27;19.43;;;3.33;;
65407;SDS011;52017;51.230;-2.322;2022-11-02T09:13:12;20.73;;;3.47;;
65407;SDS011;52017;51.230;-2.322;2022-11-02T09:16:55;17.50;;;3.13;;
65407;SDS011;52017;51.230;-2.322;2022-11-02T09:20:37;13.33;;;2.70;;
65407;SDS011;52017;51.230;-2.322;2022-11-02T09:24:22;13.47;;;3.80;;
65407;SDS011;52017;51.230;-2.322;2022-11-02T09:28:04;12.73;;;3.40;;
65407;SDS011;52017;51.230;-2.322;2022-11-02T09:31:49;19.93;;;3.47;;
65407;SDS011;52017;51.230;-2.322;2022-11-02T09:35:32;13.10;;;3.10;;
65407;SDS011;52017;51.230;-2.322;2022-11-02T09:39:16;24.10;;;3.67;;
65407;SDS011;52017;51.230;-2.322;2022-11-02T09:47:00;17.23;;;3.10;;
65407;SDS011;52017;51.230;-2.322;2022-11-02T09:51:06;15.07;;;2.87;;
65407;SDS011;52017;51.230;-2.322;2022-11-02T09:54:51;15.60;;;2.50;;
65407;SDS011;52017;51.230;-2.322;2022-11-02T09:58:37;20.85;;;4.03;;
65407;SDS011;52017;51.230;-2.322;2022-11-02T10:10:13;13.63;;;3.33;;
65407;SDS011;52017;51.230;-2.322;2022-11-02T10:13:59;24.73;;;3.90;;
65407;SDS011;52017;51.230;-2.322;2022-11-02T10:18:03;19.97;;;3.67;;
65407;SDS011;52017;51.230;-2.322;2022-11-02T10:21:48;17.03;;;4.00;;
65407;SDS011;52017;51.230;-2.322;2022-11-02T10:25:35;20.90;;;3.77;;
65407;SDS011;52017;51.230;-2.322;2022-11-02T10:30:03;19.00;;;4.37;;
65407;SDS011;52017;51.230;-2.322;2022-11-02T10:33:28;24.40;;;4.88;;
65407;SDS011;52017;51.230;-2.322;2022-11-02T10:41:43;22.00;;;4.27;;
65407;SDS011;52017;51.230;-2.322;2022-11-02T10:53:24;22.42;;;5.63;;
65407;SDS011;52017;51.230;-2.322;2022-11-02T10:57:22;22.63;;;4.60;;
65407;SDS011;52017;51.230;-2.322;2022-11-02T11:01:09;25.03;;;6.20;;
65407;SDS011;52017;51.230;-2.322;2022-11-02T11:04:53;26.60;;;5.70;;
65407;SDS011;52017;51.230;-2.322;2022-11-02T11:08:57;21.13;;;4.87;;
65407;SDS011;52017;51.230;-2.322;2022-11-02T11:12:43;24.48;;;4.03;;
65407;SDS011;52017;51.230;-2.322;2022-11-02T11:16:37;22.93;;;4.63;;
65407;SDS011;52017;51.230;-2.322;2022-11-02T11:20:37;22.58;;;4.70;;
65407;SDS011;52017;51.230;-2.322;2022-11-02T11:24:30;24.30;;;5.53;;
65407;SDS011;52017;51.230;-2.322;2022-11-02T11:28:21;19.97;;;4.37;;
65407;SDS011;52017;51.230;-2.322;2022-11-02T11:32:18;19.03;;;4.30;;
65407;SDS011;52017;51.230;-2.322;2022-11-02T11:36:10;26.55;;;4.90;;
65407;SDS011;52017;51.230;-2.322;2022-11-02T11:40:04;24.42;;;5.88;;
65407;SDS011;52017;51.230;-2.322;2022-11-02T11:43:57;19.40;;;5.32;;
65407;SDS011;52017;51.230;-2.322;2022-11-02T11:47:40;16.02;;;4.38;;
65407;SDS011;52017;51.230;-2.322;2022-11-02T11:51:33;27.48;;;5.03;;
65407;SDS011;52017;51.230;-2.322;2022-11-02T11:59:27;16.63;;;4.28;;
65407;SDS011;52017;51.230;-2.322;2022-11-02T12:03:30;17.85;;;3.85;;
65407;SDS011;52017;51.230;-2.322;2022-11-02T12:11:08;18.55;;;4.07;;
65407;SDS011;52017;51.230;-2.322;2022-11-02T12:19:09;21.23;;;4.18;;
65407;SDS011;52017;51.230;-2.322;2022-11-02T12:31:35;17.85;;;3.75;;
65407;SDS011;52017;51.230;-2.322;2022-11-02T12:40:01;21.30;;;4.63;;
65407;SDS011;52017;51.230;-2.322;2022-11-02T12:48:37;19.00;;;4.28;;
65407;SDS011;52017;51.230;-2.322;2022-11-02T12:53:04;18.38;;;4.15;;
65407;SDS011;52017;51.230;-2.322;2022-11-02T12:56:57;19.00;;;5.40;;
65407;SDS011;52017;51.230;-2.322;2022-11-02T13:00:41;16.38;;;3.42;;
65407;SDS011;52017;51.230;-2.322;2022-11-02T13:04:30;19.63;;;4.88;;
65407;SDS011;52017;51.230;-2.322;2022-11-02T13:08:24;16.27;;;4.05;;
65407;SDS011;52017;51.230;-2.322;2022-11-02T13:12:39;17.42;;;4.05;;
65407;SDS011;52017;51.230;-2.322;2022-11-02T13:20:27;17.70;;;3.85;;
65407;SDS011;52017;51.230;-2.322;2022-11-02T13:24:13;17.52;;;3.70;;
65407;SDS011;52017;51.230;-2.322;2022-11-02T13:28:30;21.80;;;4.33;;
65407;SDS011;52017;51.230;-2.322;2022-11-02T13:36:43;24.17;;;4.82;;
65407;SDS011;52017;51.230;-2.322;2022-11-02T13:48:38;16.33;;;4.00;;
65407;SDS011;52017;51.230;-2.322;2022-11-02T13:52:51;23.27;;;3.95;;
65407;SDS011;52017;51.230;-2.322;2022-11-02T13:56:39;15.00;;;3.50;;
65407;SDS011;52017;51.230;-2.322;2022-11-02T14:04:07;16.75;;;3.55;;
65407;SDS011;52017;51.230;-2.322;2022-11-02T14:07:58;14.88;;;3.20;;
65407;SDS011;52017;51.230;-2.322;2022-11-02T14:12:09;25.00;;;4.68;;
65407;SDS011;52017;51.230;-2.322;2022-11-02T14:20:47;19.65;;;4.63;;
65407;SDS011;52017;51.230;-2.322;2022-11-02T14:32:40;19.63;;;4.18;;
65407;SDS011;52017;51.230;-2.322;2022-11-02T14:45:05;17.60;;;4.03;;
65407;SDS011;52017;51.230;-2.322;2022-11-02T14:48:57;19.00;;;4.45;;
65407;SDS011;52017;51.230;-2.322;2022-11-02T14:52:55;22.52;;;4.65;;
65407;SDS011;52017;51.230;-2.322;2022-11-02T15:01:25;19.43;;;3.40;;
65407;SDS011;52017;51.230;-2.322;2022-11-02T15:05:20;18.90;;;4.17;;
65407;SDS011;52017;51.230;-2.322;2022-11-02T15:13:44;16.97;;;3.63;;
65407;SDS011;52017;51.230;-2.322;2022-11-02T15:21:21;24.47;;;5.67;;
65407;SDS011;52017;51.230;-2.322;2022-11-02T15:25:20;21.17;;;5.00;;
65407;SDS011;52017;51.230;-2.322;2022-11-02T15:37:28;21.53;;;3.83;;
65407;SDS011;52017;51.230;-2.322;2022-11-02T15:41:37;26.00;;;5.43;;
65407;SDS011;52017;51.230;-2.322;2022-11-02T15:49:50;29.73;;;5.40;;
65407;SDS011;52017;51.230;-2.322;2022-11-02T15:54:02;13.43;;;3.97;;
65407;SDS011;52017;51.230;-2.322;2022-11-02T16:06:13;18.87;;;4.67;;
65407;SDS011;52017;51.230;-2.322;2022-11-02T16:10:20;22.17;;;4.43;;
65407;SDS011;52017;51.230;-2.322;2022-11-02T16:14:16;24.10;;;5.40;;
65407;SDS011;52017;51.230;-2.322;2022-11-02T16:21:47;17.77;;;3.53;;
65407;SDS011;52017;51.230;-2.322;2022-11-02T16:25:36;24.67;;;4.47;;
65407;SDS011;52017;51.230;-2.322;2022-11-02T16:29:28;20.03;;;4.33;;
65407;SDS011;52017;51.230;-2.322;2022-11-02T16:33:14;21.50;;;5.07;;
65407;SDS011;52017;51.230;-2.322;2022-11-02T16:37:09;17.23;;;4.17;;
65407;SDS011;52017;51.230;-2.322;2022-11-02T16:41:07;17.37;;;4.37;;
65407;SDS011;52017;51.230;-2.322;2022-11-02T16:44:55;25.77;;;4.93;;
65407;SDS011;52017;51.230;-2.322;2022-11-02T16:52:59;20.37;;;4.70;;
65407;SDS011;52017;51.230;-2.322;2022-11-02T16:56:49;32.28;;;4.63;;
65407;SDS011;52017;51.230;-2.322;2022-11-02T17:00:32;16.23;;;4.20;;
65407;SDS011;52017;51.230;-2.322;2022-11-02T17:04:16;19.77;;;4.50;;
65407;SDS011;52017;51.230;-2.322;2022-11-02T17:08:07;21.03;;;4.83;;
65407;SDS011;52017;51.230;-2.322;2022-11-02T17:12:07;22.63;;;3.97;;
65407;SDS011;52017;51.230;-2.322;2022-11-02T17:15:54;22.97;;;4.80;;
65407;SDS011;52017;51.230;-2.322;2022-11-02T17:19:43;23.50;;;5.07;;
65407;SDS011;52017;51.230;-2.322;2022-11-02T17:23:35;23.87;;;4.80;;
65407;SDS011;52017;51.230;-2.322;2022-11-02T17:27:25;22.70;;;4.60;;
65407;SDS011;52017;51.230;-2.322;2022-11-02T17:31:27;21.43;;;4.63;;
65407;SDS011;52017;51.230;-2.322;2022-11-02T17:35:16;18.60;;;4.87;;
65407;SDS011;52017;51.230;-2.322;2022-11-02T17:39:11;25.87;;;5.33;;
65407;SDS011;52017;51.230;-2.322;2022-11-02T17:42:55;22.90;;;5.33;;
65407;SDS011;52017;51.230;-2.322;2022-11-02T17:46:40;27.87;;;5.63;;
65407;SDS011;52017;51.230;-2.322;2022-11-02T17:50:27;20.27;;;4.93;;
65407;SDS011;52017;51.230;-2.322;2022-11-02T17:54:11;23.70;;;4.87;;
65407;SDS011;52017;51.230;-2.322;2022-11-02T17:57:55;25.10;;;5.03;;
65407;SDS011;52017;51.230;-2.322;2022-11-02T18:01:41;23.77;;;5.67;;
65407;SDS011;52017;51.230;-2.322;2022-11-02T18:05:24;26.13;;;5.97;;
65407;SDS011;52017;51.230;-2.322;2022-11-02T18:09:12;21.90;;;4.40;;
65407;SDS011;52017;51.230;-2.322;2022-11-02T18:13:00;19.90;;;5.60;;
65407;SDS011;52017;51.230;-2.322;2022-11-02T18:16:42;22.60;;;5.47;;
65407;SDS011;52017;51.230;-2.322;2022-11-02T18:20:26;26.37;;;5.50;;
65407;SDS011;52017;51.230;-2.322;2022-11-02T18:24:20;22.07;;;5.53;;
65407;SDS011;52017;51.230;-2.322;2022-11-02T18:28:05;23.00;;;5.20;;
65407;SDS011;52017;51.230;-2.322;2022-11-02T18:31:47;20.53;;;5.20;;
65407;SDS011;52017;51.230;-2.322;2022-11-02T18:35:33;19.53;;;5.43;;
65407;SDS011;52017;51.230;-2.322;2022-11-02T18:43:34;25.83;;;6.13;;
65407;SDS011;52017;51.230;-2.322;2022-11-02T18:52:13;33.93;;;7.00;;
65407;SDS011;52017;51.230;-2.322;2022-11-02T18:56:03;28.33;;;6.07;;
65407;SDS011;52017;51.230;-2.322;2022-11-02T18:59:52;31.67;;;6.17;;
65407;SDS011;52017;51.230;-2.322;2022-11-02T19:03:35;31.93;;;7.13;;
65407;SDS011;52017;51.230;-2.322;2022-11-02T19:07:18;26.27;;;5.47;;
65407;SDS011;52017;51.230;-2.322;2022-11-02T19:11:25;20.20;;;4.93;;
65407;SDS011;52017;51.230;-2.322;2022-11-02T19:15:14;22.30;;;4.63;;
65407;SDS011;52017;51.230;-2.322;2022-11-02T19:18:58;11.33;;;2.80;;
65407;SDS011;52017;51.230;-2.322;2022-11-02T19:30:36;11.17;;;2.80;;
65407;SDS011;52017;51.230;-2.322;2022-11-02T19:34:18;8.37;;;2.30;;
65407;SDS011;52017;51.230;-2.322;2022-11-02T19:38:00;9.17;;;2.20;;
65407;SDS011;52017;51.230;-2.322;2022-11-02T19:45:35;3.80;;;1.37;;
65407;SDS011;52017;51.230;-2.322;2022-11-02T19:49:17;4.80;;;1.50;;
65407;SDS011;52017;51.230;-2.322;2022-11-02T19:53:10;5.40;;;1.77;;
65407;SDS011;52017;51.230;-2.322;2022-11-02T19:57:06;3.13;;;1.42;;
65407;SDS011;52017;51.230;-2.322;2022-11-02T20:00:49;3.33;;;1.50;;
65407;SDS011;52017;51.230;-2.322;2022-11-02T20:04:31;3.90;;;2.17;;
65407;SDS011;52017;51.230;-2.322;2022-11-02T20:08:22;4.77;;;2.70;;
65407;SDS011;52017;51.230;-2.322;2022-11-02T20:12:05;5.43;;;1.73;;
65407;SDS011;52017;51.230;-2.322;2022-11-02T20:15:56;3.80;;;2.00;;
65407;SDS011;52017;51.230;-2.322;2022-11-02T20:19:39;4.33;;;1.90;;
65407;SDS011;52017;51.230;-2.322;2022-11-02T20:23:21;3.90;;;1.73;;
65407;SDS011;52017;51.230;-2.322;2022-11-02T20:27:03;4.73;;;1.83;;
65407;SDS011;52017;51.230;-2.322;2022-11-02T20:30:46;6.27;;;1.60;;
65407;SDS011;52017;51.230;-2.322;2022-11-02T20:34:29;7.63;;;2.17;;
65407;SDS011;52017;51.230;-2.322;2022-11-02T20:38:11;8.70;;;2.00;;
65407;SDS011;52017;51.230;-2.322;2022-11-02T20:41:54;5.73;;;2.13;;
65407;SDS011;52017;51.230;-2.322;2022-11-02T20:45:37;6.53;;;1.70;;
65407;SDS011;52017;51.230;-2.322;2022-11-02T20:49:19;13.07;;;2.40;;
65407;SDS011;52017;51.230;-2.322;2022-11-02T20:53:23;10.73;;;2.83;;
65407;SDS011;52017;51.230;-2.322;2022-11-02T20:57:05;5.80;;;2.10;;
65407;SDS011;52017;51.230;-2.322;2022-11-02T21:00:47;10.00;;;2.03;;
65407;SDS011;52017;51.230;-2.322;2022-11-02T21:04:29;4.90;;;1.70;;
65407;SDS011;52017;51.230;-2.322;2022-11-02T21:08:11;5.53;;;1.63;;
65407;SDS011;52017;51.230;-2.322;2022-11-02T21:11:57;8.50;;;2.20;;
65407;SDS011;52017;51.230;-2.322;2022-11-02T21:16:01;5.10;;;2.10;;
65407;SDS011;52017;51.230;-2.322;2022-11-02T21:19:44;6.25;;;1.38;;
65407;SDS011;52017;51.230;-2.322;2022-11-02T21:23:27;8.73;;;1.87;;
65407;SDS011;52017;51.230;-2.322;2022-11-02T21:27:09;8.07;;;2.37;;
65407;SDS011;52017;51.230;-2.322;2022-11-02T21:30:51;5.30;;;1.40;;
65407;SDS011;52017;51.230;-2.322;2022-11-02T21:34:35;7.57;;;1.37;;
65407;SDS011;52017;51.230;-2.322;2022-11-02T21:38:17;5.67;;;1.80;;
65407;SDS011;52017;51.230;-2.322;2022-11-02T21:42:00;5.33;;;2.33;;
65407;SDS011;52017;51.230;-2.322;2022-11-02T21:45:53;6.13;;;2.23;;
65407;SDS011;52017;51.230;-2.322;2022-11-02T21:53:48;7.03;;;1.70;;
65407;SDS011;52017;51.230;-2.322;2022-11-02T21:57:31;8.57;;;2.30;;
65407;SDS011;52017;51.230;-2.322;2022-11-02T22:01:16;10.43;;;3.10;;
65407;SDS011;52017;51.230;-2.322;2022-11-02T22:05:26;7.20;;;2.00;;
65407;SDS011;52017;51.230;-2.322;2022-11-02T22:09:28;6.17;;;1.80;;
65407;SDS011;52017;51.230;-2.322;2022-11-02T22:13:10;8.97;;;2.17;;
65407;SDS011;52017;51.230;-2.322;2022-11-02T22:17:11;9.53;;;2.57;;
65407;SDS011;52017;51.230;-2.322;2022-11-02T22:21:14;25.43;;;16.03;;
65407;SDS011;52017;51.230;-2.322;2022-11-02T22:24:58;37.67;;;21.77;;
65407;SDS011;52017;51.230;-2.322;2022-11-02T22:28:45;9.50;;;2.60;;
65407;SDS011;52017;51.230;-2.322;2022-11-02T22:32:29;7.77;;;2.00;;
65407;SDS011;52017;51.230;-2.322;2022-11-02T22:36:13;10.43;;;1.97;;
65407;SDS011;52017;51.230;-2.322;2022-11-02T22:39:59;8.20;;;2.05;;
65407;SDS011;52017;51.230;-2.322;2022-11-02T22:43:42;11.20;;;3.27;;
65407;SDS011;52017;51.230;-2.322;2022-11-02T22:47:26;11.20;;;2.53;;
65407;SDS011;52017;51.230;-2.322;2022-11-02T22:51:09;12.50;;;2.87;;
65407;SDS011;52017;51.230;-2.322;2022-11-02T22:54:55;8.82;;;2.13;;
65407;SDS011;52017;51.230;-2.322;2022-11-02T22:58:41;10.33;;;3.33;;
65407;SDS011;52017;51.230;-2.322;2022-11-02T23:06:13;13.13;;;3.23;;
65407;SDS011;52017;51.230;-2.322;2022-11-02T23:09:59;9.23;;;1.80;;
65407;SDS011;52017;51.230;-2.322;2022-11-02T23:14:11;17.77;;;2.77;;
65407;SDS011;52017;51.230;-2.322;2022-11-02T23:17:54;12.03;;;1.83;;
65407;SDS011;52017;51.230;-2.322;2022-11-02T23:21:38;16.47;;;2.93;;
65407;SDS011;52017;51.230;-2.322;2022-11-02T23:25:22;23.83;;;3.37;;
65407;SDS011;52017;51.230;-2.322;2022-11-02T23:29:06;11.60;;;2.37;;
65407;SDS011;52017;51.230;-2.322;2022-11-02T23:33:13;9.17;;;2.30;;
65407;SDS011;52017;51.230;-2.322;2022-11-02T23:36:59;8.73;;;2.17;;
65407;SDS011;52017;51.230;-2.322;2022-11-02T23:40:41;12.50;;;2.70;;
65407;SDS011;52017;51.230;-2.322;2022-11-02T23:44:23;14.83;;;2.87;;
65407;SDS011;52017;51.230;-2.322;2022-11-02T23:48:08;15.50;;;2.50;;
65407;SDS011;52017;51.230;-2.322;2022-11-02T23:51:52;9.47;;;2.47;;
65407;SDS011;52017;51.230;-2.322;2022-11-02T23:55:53;12.20;;;2.60;;
65407;SDS011;52017;51.230;-2.322;2022-11-02T23:59:55;12.00;;;3.23;;
